sensor_id;sensor_type;location;lat;lon;timestamp;P1;durP1;ratioP1;P2;durP2;ratioP2
11797;SDS011;5956;51.428;6.682;2023-08-30T00:02:17;10.93;;;9.93;;
11797;SDS011;5956;51.428;6.682;2023-08-30T00:04:43;12.33;;;11.30;;
11797;SDS011;5956;51.428;6.682;2023-08-30T00:07:10;11.63;;;10.47;;
11797;SDS011;5956;51.428;6.682;2023-08-30T00:09:36;11.97;;;10.63;;
11797;SDS011;5956;51.428;6.682;2023-08-30T00:12:05;11.73;;;10.73;;
11797;SDS011;5956;51.428;6.682;2023-08-30T00:14:31;11.43;;;10.33;;
11797;SDS011;5956;51.428;6.682;2023-08-30T00:16:58;9.67;;;8.97;;
11797;SDS011;5956;51.428;6.682;2023-08-30T00:19:24;8.57;;;7.77;;
11797;SDS011;5956;51.428;6.682;2023-08-30T00:21:50;8.87;;;8.17;;
11797;SDS011;5956;51.428;6.682;2023-08-30T00:24:17;8.00;;;7.40;;
11797;SDS011;5956;51.428;6.682;2023-08-30T00:26:43;9.87;;;8.97;;
11797;SDS011;5956;51.428;6.682;2023-08-30T00:29:11;10.20;;;9.23;;
11797;SDS011;5956;51.428;6.682;2023-08-30T00:31:38;9.63;;;8.70;;
11797;SDS011;5956;51.428;6.682;2023-08-30T00:34:04;9.60;;;8.87;;
11797;SDS011;5956;51.428;6.682;2023-08-30T00:36:31;10.53;;;9.53;;
11797;SDS011;5956;51.428;6.682;2023-08-30T00:38:57;9.73;;;8.93;;
11797;SDS011;5956;51.428;6.682;2023-08-30T00:41:23;10.07;;;8.97;;
11797;SDS011;5956;51.428;6.682;2023-08-30T00:43:50;9.47;;;8.67;;
11797;SDS011;5956;51.428;6.682;2023-08-30T00:46:18;9.23;;;8.43;;
11797;SDS011;5956;51.428;6.682;2023-08-30T00:48:44;9.27;;;8.37;;
11797;SDS011;5956;51.428;6.682;2023-08-30T00:51:11;9.00;;;8.30;;
11797;SDS011;5956;51.428;6.682;2023-08-30T00:53:38;8.07;;;7.43;;
11797;SDS011;5956;51.428;6.682;2023-08-30T00:56:04;9.60;;;8.37;;
11797;SDS011;5956;51.428;6.682;2023-08-30T00:58:31;10.67;;;9.77;;
11797;SDS011;5956;51.428;6.682;2023-08-30T01:00:58;10.20;;;9.37;;
11797;SDS011;5956;51.428;6.682;2023-08-30T01:03:26;10.80;;;9.90;;
11797;SDS011;5956;51.428;6.682;2023-08-30T01:05:52;11.23;;;10.13;;
11797;SDS011;5956;51.428;6.682;2023-08-30T01:08:19;11.50;;;10.60;;
11797;SDS011;5956;51.428;6.682;2023-08-30T01:10:47;11.53;;;10.47;;
11797;SDS011;5956;51.428;6.682;2023-08-30T01:13:18;12.63;;;11.43;;
11797;SDS011;5956;51.428;6.682;2023-08-30T01:15:46;13.37;;;10.70;;
11797;SDS011;5956;51.428;6.682;2023-08-30T01:18:13;11.93;;;10.73;;
11797;SDS011;5956;51.428;6.682;2023-08-30T01:20:42;10.37;;;9.57;;
11797;SDS011;5956;51.428;6.682;2023-08-30T01:23:11;11.20;;;10.17;;
11797;SDS011;5956;51.428;6.682;2023-08-30T01:25:46;11.47;;;10.53;;
11797;SDS011;5956;51.428;6.682;2023-08-30T01:28:15;11.33;;;10.47;;
11797;SDS011;5956;51.428;6.682;2023-08-30T01:30:42;11.97;;;10.87;;
11797;SDS011;5956;51.428;6.682;2023-08-30T01:33:10;11.00;;;10.00;;
11797;SDS011;5956;51.428;6.682;2023-08-30T01:35:37;13.20;;;12.20;;
11797;SDS011;5956;51.428;6.682;2023-08-30T01:38:06;12.33;;;11.33;;
11797;SDS011;5956;51.428;6.682;2023-08-30T01:40:34;13.07;;;11.90;;
11797;SDS011;5956;51.428;6.682;2023-08-30T01:43:01;12.80;;;11.60;;
11797;SDS011;5956;51.428;6.682;2023-08-30T01:45:31;13.30;;;12.10;;
11797;SDS011;5956;51.428;6.682;2023-08-30T01:47:58;15.27;;;13.77;;
11797;SDS011;5956;51.428;6.682;2023-08-30T01:50:25;15.40;;;14.03;;
11797;SDS011;5956;51.428;6.682;2023-08-30T01:52:52;15.47;;;13.90;;
11797;SDS011;5956;51.428;6.682;2023-08-30T01:55:20;14.13;;;12.87;;
11797;SDS011;5956;51.428;6.682;2023-08-30T01:57:48;14.97;;;13.67;;
11797;SDS011;5956;51.428;6.682;2023-08-30T02:00:15;15.10;;;13.60;;
11797;SDS011;5956;51.428;6.682;2023-08-30T02:02:42;16.10;;;14.50;;
11797;SDS011;5956;51.428;6.682;2023-08-30T02:05:09;15.43;;;13.93;;
11797;SDS011;5956;51.428;6.682;2023-08-30T02:07:38;15.07;;;13.83;;
11797;SDS011;5956;51.428;6.682;2023-08-30T02:10:06;17.50;;;15.90;;
11797;SDS011;5956;51.428;6.682;2023-08-30T02:12:34;16.07;;;14.57;;
11797;SDS011;5956;51.428;6.682;2023-08-30T02:15:03;16.60;;;15.13;;
11797;SDS011;5956;51.428;6.682;2023-08-30T02:17:30;16.50;;;15.00;;
11797;SDS011;5956;51.428;6.682;2023-08-30T02:19:58;17.27;;;15.77;;
11797;SDS011;5956;51.428;6.682;2023-08-30T02:22:24;16.43;;;14.90;;
11797;SDS011;5956;51.428;6.682;2023-08-30T02:24:51;16.40;;;14.90;;
11797;SDS011;5956;51.428;6.682;2023-08-30T02:27:18;16.67;;;15.27;;
11797;SDS011;5956;51.428;6.682;2023-08-30T02:29:44;17.43;;;15.90;;
11797;SDS011;5956;51.428;6.682;2023-08-30T02:32:11;16.93;;;15.33;;
11797;SDS011;5956;51.428;6.682;2023-08-30T02:34:37;16.17;;;14.37;;
11797;SDS011;5956;51.428;6.682;2023-08-30T02:37:05;15.80;;;14.30;;
11797;SDS011;5956;51.428;6.682;2023-08-30T02:39:32;14.77;;;13.40;;
11797;SDS011;5956;51.428;6.682;2023-08-30T02:41:58;17.17;;;15.50;;
11797;SDS011;5956;51.428;6.682;2023-08-30T02:44:25;15.57;;;13.97;;
11797;SDS011;5956;51.428;6.682;2023-08-30T02:46:51;17.07;;;15.50;;
11797;SDS011;5956;51.428;6.682;2023-08-30T02:49:18;15.90;;;14.40;;
11797;SDS011;5956;51.428;6.682;2023-08-30T02:51:44;16.43;;;14.83;;
11797;SDS011;5956;51.428;6.682;2023-08-30T02:54:12;15.57;;;14.27;;
11797;SDS011;5956;51.428;6.682;2023-08-30T02:56:39;17.30;;;15.53;;
11797;SDS011;5956;51.428;6.682;2023-08-30T02:59:07;16.07;;;14.57;;
11797;SDS011;5956;51.428;6.682;2023-08-30T03:01:33;15.33;;;13.97;;
11797;SDS011;5956;51.428;6.682;2023-08-30T03:04:00;16.10;;;14.70;;
11797;SDS011;5956;51.428;6.682;2023-08-30T03:06:26;15.03;;;13.63;;
11797;SDS011;5956;51.428;6.682;2023-08-30T03:08:53;15.30;;;14.00;;
11797;SDS011;5956;51.428;6.682;2023-08-30T03:11:21;15.03;;;13.63;;
11797;SDS011;5956;51.428;6.682;2023-08-30T03:13:47;15.23;;;13.97;;
11797;SDS011;5956;51.428;6.682;2023-08-30T03:16:14;16.10;;;14.70;;
11797;SDS011;5956;51.428;6.682;2023-08-30T03:18:41;15.63;;;14.33;;
11797;SDS011;5956;51.428;6.682;2023-08-30T03:21:08;14.47;;;13.27;;
11797;SDS011;5956;51.428;6.682;2023-08-30T03:23:35;14.73;;;13.43;;
11797;SDS011;5956;51.428;6.682;2023-08-30T03:26:07;13.73;;;12.53;;
11797;SDS011;5956;51.428;6.682;2023-08-30T03:28:35;13.10;;;12.03;;
11797;SDS011;5956;51.428;6.682;2023-08-30T03:31:01;12.97;;;11.87;;
11797;SDS011;5956;51.428;6.682;2023-08-30T03:33:28;12.77;;;11.70;;
11797;SDS011;5956;51.428;6.682;2023-08-30T03:35:57;14.57;;;13.37;;
11797;SDS011;5956;51.428;6.682;2023-08-30T03:38:24;14.67;;;13.20;;
11797;SDS011;5956;51.428;6.682;2023-08-30T03:40:52;14.70;;;13.40;;
11797;SDS011;5956;51.428;6.682;2023-08-30T03:43:19;14.70;;;13.27;;
11797;SDS011;5956;51.428;6.682;2023-08-30T03:45:47;14.80;;;13.33;;
11797;SDS011;5956;51.428;6.682;2023-08-30T03:48:13;15.20;;;13.80;;
11797;SDS011;5956;51.428;6.682;2023-08-30T03:50:40;15.67;;;14.27;;
11797;SDS011;5956;51.428;6.682;2023-08-30T03:53:06;15.67;;;14.27;;
11797;SDS011;5956;51.428;6.682;2023-08-30T03:55:32;13.63;;;12.43;;
11797;SDS011;5956;51.428;6.682;2023-08-30T03:57:59;13.30;;;12.23;;
11797;SDS011;5956;51.428;6.682;2023-08-30T04:00:26;13.37;;;12.27;;
11797;SDS011;5956;51.428;6.682;2023-08-30T04:02:53;14.30;;;12.90;;
11797;SDS011;5956;51.428;6.682;2023-08-30T04:05:20;14.20;;;12.80;;
11797;SDS011;5956;51.428;6.682;2023-08-30T04:07:46;15.43;;;13.90;;
11797;SDS011;5956;51.428;6.682;2023-08-30T04:10:13;15.20;;;13.80;;
11797;SDS011;5956;51.428;6.682;2023-08-30T04:12:39;17.03;;;15.57;;
11797;SDS011;5956;51.428;6.682;2023-08-30T04:15:06;17.60;;;15.87;;
11797;SDS011;5956;51.428;6.682;2023-08-30T04:17:32;17.83;;;16.03;;
11797;SDS011;5956;51.428;6.682;2023-08-30T04:20:00;17.97;;;16.10;;
11797;SDS011;5956;51.428;6.682;2023-08-30T04:22:27;17.87;;;16.27;;
11797;SDS011;5956;51.428;6.682;2023-08-30T04:24:53;16.40;;;14.90;;
11797;SDS011;5956;51.428;6.682;2023-08-30T04:27:20;16.40;;;14.70;;
11797;SDS011;5956;51.428;6.682;2023-08-30T04:29:46;16.73;;;15.30;;
11797;SDS011;5956;51.428;6.682;2023-08-30T04:32:13;16.83;;;15.27;;
11797;SDS011;5956;51.428;6.682;2023-08-30T04:34:39;17.43;;;15.73;;
11797;SDS011;5956;51.428;6.682;2023-08-30T04:37:07;18.33;;;16.73;;
11797;SDS011;5956;51.428;6.682;2023-08-30T04:39:33;18.87;;;17.03;;
11797;SDS011;5956;51.428;6.682;2023-08-30T04:42:00;18.40;;;16.70;;
11797;SDS011;5956;51.428;6.682;2023-08-30T04:44:27;17.70;;;15.90;;
11797;SDS011;5956;51.428;6.682;2023-08-30T04:46:54;18.33;;;16.50;;
11797;SDS011;5956;51.428;6.682;2023-08-30T04:49:21;19.17;;;17.27;;
11797;SDS011;5956;51.428;6.682;2023-08-30T04:51:47;18.13;;;16.30;;
11797;SDS011;5956;51.428;6.682;2023-08-30T04:54:15;19.67;;;17.43;;
11797;SDS011;5956;51.428;6.682;2023-08-30T04:56:41;19.40;;;17.53;;
11797;SDS011;5956;51.428;6.682;2023-08-30T04:59:08;19.67;;;17.80;;
11797;SDS011;5956;51.428;6.682;2023-08-30T05:01:34;19.70;;;17.77;;
11797;SDS011;5956;51.428;6.682;2023-08-30T05:04:02;19.97;;;18.07;;
11797;SDS011;5956;51.428;6.682;2023-08-30T05:06:30;21.50;;;19.37;;
11797;SDS011;5956;51.428;6.682;2023-08-30T05:08:57;20.90;;;18.93;;
11797;SDS011;5956;51.428;6.682;2023-08-30T05:11:25;21.67;;;19.43;;
11797;SDS011;5956;51.428;6.682;2023-08-30T05:13:52;21.20;;;19.30;;
11797;SDS011;5956;51.428;6.682;2023-08-30T05:16:18;22.63;;;20.23;;
11797;SDS011;5956;51.428;6.682;2023-08-30T05:18:45;22.23;;;20.03;;
11797;SDS011;5956;51.428;6.682;2023-08-30T05:21:13;20.20;;;18.20;;
11797;SDS011;5956;51.428;6.682;2023-08-30T05:23:39;21.20;;;19.03;;
11797;SDS011;5956;51.428;6.682;2023-08-30T05:26:07;22.30;;;20.13;;
11797;SDS011;5956;51.428;6.682;2023-08-30T05:28:35;23.13;;;20.97;;
11797;SDS011;5956;51.428;6.682;2023-08-30T05:31:02;20.87;;;18.83;;
11797;SDS011;5956;51.428;6.682;2023-08-30T05:33:29;19.83;;;18.10;;
11797;SDS011;5956;51.428;6.682;2023-08-30T05:35:55;20.40;;;18.40;;
11797;SDS011;5956;51.428;6.682;2023-08-30T05:38:22;22.63;;;20.37;;
11797;SDS011;5956;51.428;6.682;2023-08-30T05:40:48;21.17;;;19.17;;
11797;SDS011;5956;51.428;6.682;2023-08-30T05:43:15;21.20;;;19.20;;
11797;SDS011;5956;51.428;6.682;2023-08-30T05:45:42;20.70;;;18.70;;
11797;SDS011;5956;51.428;6.682;2023-08-30T05:48:09;19.13;;;17.20;;
11797;SDS011;5956;51.428;6.682;2023-08-30T05:50:35;20.63;;;18.73;;
11797;SDS011;5956;51.428;6.682;2023-08-30T05:53:02;21.20;;;18.93;;
11797;SDS011;5956;51.428;6.682;2023-08-30T05:55:29;19.52;;;17.70;;
11797;SDS011;5956;51.428;6.682;2023-08-30T05:57:56;23.10;;;20.83;;
11797;SDS011;5956;51.428;6.682;2023-08-30T06:00:22;20.08;;;18.20;;
11797;SDS011;5956;51.428;6.682;2023-08-30T06:02:52;18.67;;;16.77;;
11797;SDS011;5956;51.428;6.682;2023-08-30T06:05:19;22.53;;;20.13;;
11797;SDS011;5956;51.428;6.682;2023-08-30T06:07:46;23.95;;;21.58;;
11797;SDS011;5956;51.428;6.682;2023-08-30T06:10:13;22.90;;;20.60;;
11797;SDS011;5956;51.428;6.682;2023-08-30T06:12:39;20.60;;;18.45;;
11797;SDS011;5956;51.428;6.682;2023-08-30T06:15:06;21.77;;;19.53;;
11797;SDS011;5956;51.428;6.682;2023-08-30T06:17:33;19.70;;;17.90;;
11797;SDS011;5956;51.428;6.682;2023-08-30T06:20:01;20.33;;;18.52;;
11797;SDS011;5956;51.428;6.682;2023-08-30T06:22:29;21.55;;;19.48;;
11797;SDS011;5956;51.428;6.682;2023-08-30T06:24:56;19.63;;;17.70;;
11797;SDS011;5956;51.428;6.682;2023-08-30T06:27:23;24.02;;;21.75;;
11797;SDS011;5956;51.428;6.682;2023-08-30T06:29:50;20.88;;;19.05;;
11797;SDS011;5956;51.428;6.682;2023-08-30T06:32:17;21.10;;;18.17;;
11797;SDS011;5956;51.428;6.682;2023-08-30T06:34:43;19.95;;;18.08;;
11797;SDS011;5956;51.428;6.682;2023-08-30T06:37:12;19.90;;;18.20;;
11797;SDS011;5956;51.428;6.682;2023-08-30T06:39:38;20.30;;;18.27;;
11797;SDS011;5956;51.428;6.682;2023-08-30T06:42:05;19.10;;;17.30;;
11797;SDS011;5956;51.428;6.682;2023-08-30T06:44:32;18.88;;;16.90;;
11797;SDS011;5956;51.428;6.682;2023-08-30T06:46:59;20.00;;;18.15;;
11797;SDS011;5956;51.428;6.682;2023-08-30T06:49:25;18.20;;;16.50;;
11797;SDS011;5956;51.428;6.682;2023-08-30T06:51:52;19.67;;;17.80;;
11797;SDS011;5956;51.428;6.682;2023-08-30T06:54:20;19.92;;;18.13;;
11797;SDS011;5956;51.428;6.682;2023-08-30T06:56:56;18.85;;;17.05;;
11797;SDS011;5956;51.428;6.682;2023-08-30T06:59:22;17.08;;;15.57;;
11797;SDS011;5956;51.428;6.682;2023-08-30T07:01:49;18.00;;;16.40;;
11797;SDS011;5956;51.428;6.682;2023-08-30T07:04:15;17.88;;;16.35;;
11797;SDS011;5956;51.428;6.682;2023-08-30T07:06:42;18.33;;;16.70;;
11797;SDS011;5956;51.428;6.682;2023-08-30T07:09:09;18.10;;;16.33;;
11797;SDS011;5956;51.428;6.682;2023-08-30T07:11:37;16.95;;;15.35;;
11797;SDS011;5956;51.428;6.682;2023-08-30T07:14:04;17.27;;;15.52;;
11797;SDS011;5956;51.428;6.682;2023-08-30T07:16:31;17.25;;;15.55;;
11797;SDS011;5956;51.428;6.682;2023-08-30T07:18:58;17.83;;;16.23;;
11797;SDS011;5956;51.428;6.682;2023-08-30T07:21:26;18.15;;;16.42;;
11797;SDS011;5956;51.428;6.682;2023-08-30T07:23:53;16.77;;;15.07;;
11797;SDS011;5956;51.428;6.682;2023-08-30T07:26:19;16.48;;;14.82;;
11797;SDS011;5956;51.428;6.682;2023-08-30T07:28:47;15.48;;;14.15;;
11797;SDS011;5956;51.428;6.682;2023-08-30T07:31:14;15.13;;;13.60;;
11797;SDS011;5956;51.428;6.682;2023-08-30T07:33:43;15.05;;;13.25;;
11797;SDS011;5956;51.428;6.682;2023-08-30T07:36:09;13.15;;;11.88;;
11797;SDS011;5956;51.428;6.682;2023-08-30T07:38:36;12.70;;;11.07;;
11797;SDS011;5956;51.428;6.682;2023-08-30T07:41:03;12.75;;;11.52;;
11797;SDS011;5956;51.428;6.682;2023-08-30T07:43:29;11.68;;;10.48;;
11797;SDS011;5956;51.428;6.682;2023-08-30T07:45:57;11.38;;;9.55;;
11797;SDS011;5956;51.428;6.682;2023-08-30T07:48:24;10.98;;;8.95;;
11797;SDS011;5956;51.428;6.682;2023-08-30T07:50:50;10.65;;;8.63;;
11797;SDS011;5956;51.428;6.682;2023-08-30T07:53:17;8.20;;;7.43;;
11797;SDS011;5956;51.428;6.682;2023-08-30T07:55:47;7.40;;;6.65;;
11797;SDS011;5956;51.428;6.682;2023-08-30T07:58:14;7.05;;;6.43;;
11797;SDS011;5956;51.428;6.682;2023-08-30T08:00:40;7.50;;;6.45;;
11797;SDS011;5956;51.428;6.682;2023-08-30T08:03:08;8.10;;;5.78;;
11797;SDS011;5956;51.428;6.682;2023-08-30T08:05:35;7.65;;;6.20;;
11797;SDS011;5956;51.428;6.682;2023-08-30T08:08:02;11.30;;;9.15;;
11797;SDS011;5956;51.428;6.682;2023-08-30T08:10:31;8.68;;;6.70;;
11797;SDS011;5956;51.428;6.682;2023-08-30T08:12:58;11.18;;;10.07;;
11797;SDS011;5956;51.428;6.682;2023-08-30T08:15:24;7.53;;;6.25;;
11797;SDS011;5956;51.428;6.682;2023-08-30T08:17:51;6.00;;;5.50;;
11797;SDS011;5956;51.428;6.682;2023-08-30T08:20:19;6.85;;;6.07;;
11797;SDS011;5956;51.428;6.682;2023-08-30T08:22:46;6.97;;;6.30;;
11797;SDS011;5956;51.428;6.682;2023-08-30T08:25:12;6.65;;;5.30;;
11797;SDS011;5956;51.428;6.682;2023-08-30T08:27:39;6.72;;;5.97;;
11797;SDS011;5956;51.428;6.682;2023-08-30T08:30:06;7.65;;;5.50;;
11797;SDS011;5956;51.428;6.682;2023-08-30T08:32:33;5.72;;;5.22;;
11797;SDS011;5956;51.428;6.682;2023-08-30T08:34:59;6.20;;;5.65;;
11797;SDS011;5956;51.428;6.682;2023-08-30T08:37:27;6.03;;;5.53;;
11797;SDS011;5956;51.428;6.682;2023-08-30T08:39:53;6.97;;;5.45;;
11797;SDS011;5956;51.428;6.682;2023-08-30T08:42:20;6.82;;;5.22;;
11797;SDS011;5956;51.428;6.682;2023-08-30T08:44:49;5.85;;;5.35;;
11797;SDS011;5956;51.428;6.682;2023-08-30T08:47:16;5.28;;;4.78;;
11797;SDS011;5956;51.428;6.682;2023-08-30T08:49:44;5.55;;;4.75;;
11797;SDS011;5956;51.428;6.682;2023-08-30T08:52:12;5.25;;;4.75;;
11797;SDS011;5956;51.428;6.682;2023-08-30T08:54:41;5.72;;;5.22;;
11797;SDS011;5956;51.428;6.682;2023-08-30T08:57:08;8.35;;;4.90;;
11797;SDS011;5956;51.428;6.682;2023-08-30T08:59:35;5.63;;;4.65;;
11797;SDS011;5956;51.428;6.682;2023-08-30T09:02:02;5.88;;;5.38;;
11797;SDS011;5956;51.428;6.682;2023-08-30T09:04:28;7.00;;;5.90;;
11797;SDS011;5956;51.428;6.682;2023-08-30T09:06:56;6.88;;;6.07;;
11797;SDS011;5956;51.428;6.682;2023-08-30T09:09:22;10.95;;;10.00;;
11797;SDS011;5956;51.428;6.682;2023-08-30T09:11:50;7.72;;;6.40;;
11797;SDS011;5956;51.428;6.682;2023-08-30T09:14:17;6.18;;;5.68;;
11797;SDS011;5956;51.428;6.682;2023-08-30T09:16:53;6.30;;;5.80;;
11797;SDS011;5956;51.428;6.682;2023-08-30T09:19:20;7.40;;;6.70;;
11797;SDS011;5956;51.428;6.682;2023-08-30T09:21:50;9.82;;;6.95;;
11797;SDS011;5956;51.428;6.682;2023-08-30T09:24:16;7.55;;;6.85;;
11797;SDS011;5956;51.428;6.682;2023-08-30T09:26:46;7.47;;;6.78;;
11797;SDS011;5956;51.428;6.682;2023-08-30T09:29:16;6.90;;;6.22;;
11797;SDS011;5956;51.428;6.682;2023-08-30T09:31:42;7.85;;;7.20;;
11797;SDS011;5956;51.428;6.682;2023-08-30T09:34:09;7.78;;;7.00;;
11797;SDS011;5956;51.428;6.682;2023-08-30T09:36:36;6.97;;;6.47;;
11797;SDS011;5956;51.428;6.682;2023-08-30T09:39:04;7.38;;;6.68;;
11797;SDS011;5956;51.428;6.682;2023-08-30T09:41:30;7.80;;;7.00;;
11797;SDS011;5956;51.428;6.682;2023-08-30T09:43:58;6.40;;;5.90;;
11797;SDS011;5956;51.428;6.682;2023-08-30T09:46:26;7.18;;;6.50;;
11797;SDS011;5956;51.428;6.682;2023-08-30T09:48:53;7.47;;;6.78;;
11797;SDS011;5956;51.428;6.682;2023-08-30T09:51:20;7.88;;;6.97;;
11797;SDS011;5956;51.428;6.682;2023-08-30T09:53:49;7.45;;;6.93;;
11797;SDS011;5956;51.428;6.682;2023-08-30T09:56:17;7.50;;;6.80;;
11797;SDS011;5956;51.428;6.682;2023-08-30T09:58:44;9.02;;;7.00;;
11797;SDS011;5956;51.428;6.682;2023-08-30T10:01:10;8.35;;;7.60;;
11797;SDS011;5956;51.428;6.682;2023-08-30T10:03:38;8.40;;;7.63;;
11797;SDS011;5956;51.428;6.682;2023-08-30T10:06:05;8.57;;;7.70;;
11797;SDS011;5956;51.428;6.682;2023-08-30T10:08:32;10.52;;;7.35;;
11797;SDS011;5956;51.428;6.682;2023-08-30T10:11:01;9.35;;;8.55;;
11797;SDS011;5956;51.428;6.682;2023-08-30T10:13:29;9.32;;;8.43;;
11797;SDS011;5956;51.428;6.682;2023-08-30T10:15:57;8.43;;;7.63;;
11797;SDS011;5956;51.428;6.682;2023-08-30T10:18:25;8.43;;;7.70;;
11797;SDS011;5956;51.428;6.682;2023-08-30T10:20:53;8.25;;;7.45;;
11797;SDS011;5956;51.428;6.682;2023-08-30T10:23:20;8.85;;;7.95;;
11797;SDS011;5956;51.428;6.682;2023-08-30T10:25:47;10.57;;;8.85;;
11797;SDS011;5956;51.428;6.682;2023-08-30T10:28:14;8.60;;;7.90;;
11797;SDS011;5956;51.428;6.682;2023-08-30T10:30:41;12.90;;;11.88;;
11797;SDS011;5956;51.428;6.682;2023-08-30T10:33:11;13.70;;;12.57;;
11797;SDS011;5956;51.428;6.682;2023-08-30T10:35:46;9.65;;;8.85;;
11797;SDS011;5956;51.428;6.682;2023-08-30T10:38:24;9.90;;;8.60;;
11797;SDS011;5956;51.428;6.682;2023-08-30T10:40:51;9.45;;;8.65;;
11797;SDS011;5956;51.428;6.682;2023-08-30T10:43:27;9.13;;;8.32;;
11797;SDS011;5956;51.428;6.682;2023-08-30T10:45:58;9.43;;;8.63;;
11797;SDS011;5956;51.428;6.682;2023-08-30T10:48:33;10.15;;;8.25;;
11797;SDS011;5956;51.428;6.682;2023-08-30T10:51:00;9.20;;;8.40;;
11797;SDS011;5956;51.428;6.682;2023-08-30T10:53:30;8.52;;;7.85;;
11797;SDS011;5956;51.428;6.682;2023-08-30T10:56:07;8.32;;;6.75;;
11797;SDS011;5956;51.428;6.682;2023-08-30T10:58:40;7.40;;;6.70;;
11797;SDS011;5956;51.428;6.682;2023-08-30T11:01:07;6.32;;;5.72;;
11797;SDS011;5956;51.428;6.682;2023-08-30T11:03:35;7.50;;;6.50;;
11797;SDS011;5956;51.428;6.682;2023-08-30T11:06:02;6.55;;;5.95;;
11797;SDS011;5956;51.428;6.682;2023-08-30T11:08:28;5.70;;;5.25;;
11797;SDS011;5956;51.428;6.682;2023-08-30T11:11:01;13.55;;;12.20;;
11797;SDS011;5956;51.428;6.682;2023-08-30T11:13:29;7.63;;;6.88;;
11797;SDS011;5956;51.428;6.682;2023-08-30T11:15:59;6.05;;;5.45;;
11797;SDS011;5956;51.428;6.682;2023-08-30T11:18:25;5.88;;;5.25;;
11797;SDS011;5956;51.428;6.682;2023-08-30T11:20:53;5.07;;;4.68;;
11797;SDS011;5956;51.428;6.682;2023-08-30T11:23:20;4.68;;;4.28;;
11797;SDS011;5956;51.428;6.682;2023-08-30T11:25:49;5.63;;;5.13;;
11797;SDS011;5956;51.428;6.682;2023-08-30T11:28:22;5.00;;;4.60;;
11797;SDS011;5956;51.428;6.682;2023-08-30T11:30:49;4.50;;;4.10;;
11797;SDS011;5956;51.428;6.682;2023-08-30T11:33:16;5.75;;;5.22;;
11797;SDS011;5956;51.428;6.682;2023-08-30T11:35:43;4.82;;;4.43;;
11797;SDS011;5956;51.428;6.682;2023-08-30T11:38:10;5.38;;;5.07;;
11797;SDS011;5956;51.428;6.682;2023-08-30T11:40:37;6.75;;;4.88;;
11797;SDS011;5956;51.428;6.682;2023-08-30T11:43:04;5.30;;;4.78;;
11797;SDS011;5956;51.428;6.682;2023-08-30T11:45:33;4.82;;;4.30;;
11797;SDS011;5956;51.428;6.682;2023-08-30T11:47:59;4.93;;;4.55;;
11797;SDS011;5956;51.428;6.682;2023-08-30T11:50:26;4.75;;;4.43;;
11797;SDS011;5956;51.428;6.682;2023-08-30T11:52:53;4.82;;;4.47;;
11797;SDS011;5956;51.428;6.682;2023-08-30T11:55:20;6.18;;;5.68;;
11797;SDS011;5956;51.428;6.682;2023-08-30T11:57:48;5.25;;;4.75;;
11797;SDS011;5956;51.428;6.682;2023-08-30T12:00:15;4.65;;;4.35;;
11797;SDS011;5956;51.428;6.682;2023-08-30T12:02:45;5.97;;;4.20;;
11797;SDS011;5956;51.428;6.682;2023-08-30T12:05:12;5.40;;;3.88;;
11797;SDS011;5956;51.428;6.682;2023-08-30T12:07:39;4.30;;;3.90;;
11797;SDS011;5956;51.428;6.682;2023-08-30T12:10:06;4.13;;;3.70;;
11797;SDS011;5956;51.428;6.682;2023-08-30T12:12:33;4.15;;;3.80;;
11797;SDS011;5956;51.428;6.682;2023-08-30T12:15:01;4.35;;;4.05;;
11797;SDS011;5956;51.428;6.682;2023-08-30T12:17:28;4.32;;;3.92;;
11797;SDS011;5956;51.428;6.682;2023-08-30T12:19:57;4.55;;;4.22;;
11797;SDS011;5956;51.428;6.682;2023-08-30T12:22:23;4.00;;;3.80;;
11797;SDS011;5956;51.428;6.682;2023-08-30T12:24:50;4.53;;;4.07;;
11797;SDS011;5956;51.428;6.682;2023-08-30T12:27:18;4.68;;;4.28;;
11797;SDS011;5956;51.428;6.682;2023-08-30T12:29:44;4.32;;;4.03;;
11797;SDS011;5956;51.428;6.682;2023-08-30T12:32:11;3.50;;;3.28;;
11797;SDS011;5956;51.428;6.682;2023-08-30T12:34:38;4.15;;;3.95;;
11797;SDS011;5956;51.428;6.682;2023-08-30T12:37:06;4.63;;;4.15;;
11797;SDS011;5956;51.428;6.682;2023-08-30T12:39:33;7.40;;;6.80;;
11797;SDS011;5956;51.428;6.682;2023-08-30T12:41:59;5.75;;;5.35;;
11797;SDS011;5956;51.428;6.682;2023-08-30T12:44:26;5.68;;;5.28;;
11797;SDS011;5956;51.428;6.682;2023-08-30T12:46:53;5.22;;;4.82;;
11797;SDS011;5956;51.428;6.682;2023-08-30T12:49:20;5.28;;;4.88;;
11797;SDS011;5956;51.428;6.682;2023-08-30T12:51:47;5.32;;;4.18;;
11797;SDS011;5956;51.428;6.682;2023-08-30T12:54:14;4.45;;;4.15;;
11797;SDS011;5956;51.428;6.682;2023-08-30T12:56:41;4.68;;;4.28;;
11797;SDS011;5956;51.428;6.682;2023-08-30T12:59:07;5.20;;;4.80;;
11797;SDS011;5956;51.428;6.682;2023-08-30T13:01:34;5.47;;;5.07;;
11797;SDS011;5956;51.428;6.682;2023-08-30T13:04:01;4.60;;;4.20;;
11797;SDS011;5956;51.428;6.682;2023-08-30T13:06:28;4.68;;;3.72;;
11797;SDS011;5956;51.428;6.682;2023-08-30T13:08:55;5.13;;;4.65;;
11797;SDS011;5956;51.428;6.682;2023-08-30T13:11:23;4.82;;;4.43;;
11797;SDS011;5956;51.428;6.682;2023-08-30T13:13:51;12.98;;;11.77;;
11797;SDS011;5956;51.428;6.682;2023-08-30T13:16:18;7.90;;;6.93;;
11797;SDS011;5956;51.428;6.682;2023-08-30T13:18:44;5.20;;;4.80;;
11797;SDS011;5956;51.428;6.682;2023-08-30T13:21:11;4.43;;;4.13;;
11797;SDS011;5956;51.428;6.682;2023-08-30T13:23:37;4.80;;;4.47;;
11797;SDS011;5956;51.428;6.682;2023-08-30T13:26:04;4.50;;;4.10;;
11797;SDS011;5956;51.428;6.682;2023-08-30T13:28:32;3.88;;;3.58;;
11797;SDS011;5956;51.428;6.682;2023-08-30T13:30:59;4.75;;;4.35;;
11797;SDS011;5956;51.428;6.682;2023-08-30T13:33:26;4.43;;;4.13;;
11797;SDS011;5956;51.428;6.682;2023-08-30T13:35:53;4.40;;;3.80;;
11797;SDS011;5956;51.428;6.682;2023-08-30T13:38:19;4.15;;;3.85;;
11797;SDS011;5956;51.428;6.682;2023-08-30T13:40:48;3.97;;;3.63;;
11797;SDS011;5956;51.428;6.682;2023-08-30T13:43:15;4.20;;;4.00;;
11797;SDS011;5956;51.428;6.682;2023-08-30T13:45:44;4.00;;;3.70;;
11797;SDS011;5956;51.428;6.682;2023-08-30T13:48:15;3.97;;;3.67;;
11797;SDS011;5956;51.428;6.682;2023-08-30T13:50:42;4.40;;;4.10;;
11797;SDS011;5956;51.428;6.682;2023-08-30T13:53:09;4.07;;;3.80;;
11797;SDS011;5956;51.428;6.682;2023-08-30T13:55:39;5.07;;;4.68;;
11797;SDS011;5956;51.428;6.682;2023-08-30T13:58:08;4.63;;;4.22;;
11797;SDS011;5956;51.428;6.682;2023-08-30T14:00:36;4.72;;;4.32;;
11797;SDS011;5956;51.428;6.682;2023-08-30T14:03:05;5.00;;;4.60;;
11797;SDS011;5956;51.428;6.682;2023-08-30T14:05:33;4.28;;;4.00;;
11797;SDS011;5956;51.428;6.682;2023-08-30T14:07:59;4.35;;;4.05;;
11797;SDS011;5956;51.428;6.682;2023-08-30T14:10:26;4.28;;;3.97;;
11797;SDS011;5956;51.428;6.682;2023-08-30T14:12:53;5.05;;;4.65;;
11797;SDS011;5956;51.428;6.682;2023-08-30T14:15:20;8.55;;;7.72;;
11797;SDS011;5956;51.428;6.682;2023-08-30T14:17:46;5.75;;;5.18;;
11797;SDS011;5956;51.428;6.682;2023-08-30T14:20:15;5.50;;;5.00;;
11797;SDS011;5956;51.428;6.682;2023-08-30T14:22:41;4.85;;;4.45;;
11797;SDS011;5956;51.428;6.682;2023-08-30T14:25:08;4.68;;;4.28;;
11797;SDS011;5956;51.428;6.682;2023-08-30T14:27:35;4.70;;;4.40;;
11797;SDS011;5956;51.428;6.682;2023-08-30T14:30:02;5.85;;;5.03;;
11797;SDS011;5956;51.428;6.682;2023-08-30T14:32:29;4.60;;;4.30;;
11797;SDS011;5956;51.428;6.682;2023-08-30T14:34:55;5.05;;;4.65;;
11797;SDS011;5956;51.428;6.682;2023-08-30T14:37:24;4.93;;;4.63;;
11797;SDS011;5956;51.428;6.682;2023-08-30T14:39:52;5.57;;;5.10;;
11797;SDS011;5956;51.428;6.682;2023-08-30T14:42:19;5.90;;;5.50;;
11797;SDS011;5956;51.428;6.682;2023-08-30T14:44:48;6.05;;;5.55;;
11797;SDS011;5956;51.428;6.682;2023-08-30T14:47:15;7.60;;;6.97;;
11797;SDS011;5956;51.428;6.682;2023-08-30T14:49:41;6.88;;;6.38;;